Weather at AliMatese Airfield

Public forecast

Using degrees Celsius for public forecast. Weather courtesy of forecast.io.

Closest aviation weather report (METAR) to AliMatese Airfield

Closest report is Grazzanise Air Base, 20.3 nm (37.6 km) SW.

2024/07/25 17:55 (retrieved 54 minutes ago)

LIRM 251755Z 22004KT 9999 FEW030 29/25 Q1008

Closest aviation forecast (TAF) to AliMatese Airfield

Closest forecast is Naples International Airport, 26.5 nm (49.0 km) S.

2024/07/25 18:25 (retrieved 24 minutes ago)

TAF LIRN 251700Z 2518/2618 26012KT 9999 SCT030 BECMG 2519/2521 05007KT BECMG 2609/2611 26010KT